Time;durP1;ratioP1;P1;durP2;ratioP2;P2;SDS_P1;SDS_P2;PMS_P1;PMS_P2;Temp;Humidity;BMP_temperature;BMP_pressure;BME280_temperature;BME280_humidity;BME280_pressure;Samples;Min_cycle;Max_cycle;Signal;HPM_P1;HPM_P2
2022/08/06 00:02:15;;;;;;;1.63;0.95;;;11.50;99.90;;;;;;4982800;28;20400;-83
2022/08/06 00:04:41;;;;;;;3.70;1.13;;;11.50;99.90;;;;;;4998478;28;20042;-83
2022/08/06 00:07:07;;;;;;;3.40;0.85;;;11.50;99.90;;;;;;5017967;28;20049;-84
2022/08/06 00:09:33;;;;;;;3.33;1.02;;;11.50;99.90;;;;;;5018006;28;20046;-83
2022/08/06 00:12:00;;;;;;;6.30;1.00;;;11.40;99.90;;;;;;4982417;28;20042;-84
2022/08/06 00:14:27;;;;;;;5.75;1.15;;;11.30;99.90;;;;;;4998692;28;20041;-84
2022/08/06 00:16:53;;;;;;;3.78;1.00;;;11.30;99.90;;;;;;5032973;28;20388;-83
2022/08/06 00:19:18;;;;;;;3.05;0.88;;;11.30;99.90;;;;;;5017456;28;20128;-83
2022/08/06 00:21:44;;;;;;;1.38;0.82;;;11.30;99.90;;;;;;4986367;28;20133;-84
2022/08/06 00:24:10;;;;;;;2.78;0.80;;;11.30;99.90;;;;;;4982494;28;20045;-84
2022/08/06 00:26:37;;;;;;;4.32;0.90;;;11.20;99.90;;;;;;5028443;28;20514;-84
2022/08/06 00:29:04;;;;;;;3.95;1.80;;;11.20;99.90;;;;;;5018219;28;20049;-84
2022/08/06 00:31:30;;;;;;;3.83;0.90;;;11.20;99.90;;;;;;5023155;28;20511;-84
2022/08/06 00:33:56;;;;;;;3.47;0.80;;;11.10;99.90;;;;;;5010347;28;20049;-83
2022/08/06 00:36:26;;;;;;;4.78;0.85;;;11.10;99.90;;;;;;4981838;28;20112;-83
2022/08/06 00:38:52;;;;;;;3.28;0.98;;;11.10;99.90;;;;;;4998688;28;20053;-83
2022/08/06 00:41:18;;;;;;;2.20;0.90;;;11.00;99.90;;;;;;5000487;28;20050;-83
2022/08/06 00:43:45;;;;;;;4.88;0.90;;;11.00;99.90;;;;;;5035444;28;20060;-84
2022/08/06 00:46:11;;;;;;;5.50;1.38;;;11.00;99.90;;;;;;4982351;28;20041;-83
2022/08/06 00:48:37;;;;;;;3.75;1.20;;;11.00;99.90;;;;;;4997301;28;20049;-83
2022/08/06 00:51:04;;;;;;;2.03;0.80;;;11.00;99.90;;;;;;4998203;28;20054;-83
2022/08/06 00:53:30;;;;;;;2.67;1.05;;;11.00;99.90;;;;;;4997463;28;20042;-84
2022/08/06 00:55:56;;;;;;;4.70;1.00;;;10.90;99.90;;;;;;5014575;28;20611;-83
2022/08/06 00:58:21;;;;;;;1.77;0.52;;;10.90;99.90;;;;;;4997741;28;20054;-83
2022/08/06 01:00:48;;;;;;;2.72;0.75;;;10.90;99.90;;;;;;4991431;28;20124;-83
2022/08/06 01:03:16;;;;;;;4.90;0.98;;;10.80;99.90;;;;;;4997730;28;20137;-83
2022/08/06 01:05:43;;;;;;;4.32;1.02;;;10.80;99.90;;;;;;5006606;28;20045;-83
2022/08/06 01:08:10;;;;;;;2.75;1.48;;;10.70;99.90;;;;;;4982768;28;20081;-84
2022/08/06 01:10:36;;;;;;;7.30;1.58;;;10.70;99.90;;;;;;4983333;28;20461;-84
2022/08/06 01:13:03;;;;;;;5.28;1.98;;;10.70;99.90;;;;;;4999820;28;20049;-84
2022/08/06 01:15:30;;;;;;;5.97;3.30;;;10.80;99.90;;;;;;5013847;28;20038;-83
2022/08/06 01:18:10;;;;;;;2.92;1.70;;;10.80;99.90;;;;;;4997597;28;20049;-83
2022/08/06 01:21:07;;;;;;;3.03;1.27;;;10.80;99.90;;;;;;5002462;28;20060;-83
2022/08/06 01:24:31;;;;;;;4.65;2.15;;;10.90;99.90;;;;;;4996618;28;20201;-83
2022/08/06 01:27:09;;;;;;;5.20;2.67;;;10.90;99.90;;;;;;4983370;28;20050;-83
2022/08/06 01:29:39;;;;;;;9.88;3.28;;;10.80;99.90;;;;;;5016116;28;20045;-83
2022/08/06 01:32:15;;;;;;;8.07;3.65;;;10.80;99.90;;;;;;5014660;28;20052;-83
2022/08/06 01:34:50;;;;;;;5.75;3.20;;;10.80;99.90;;;;;;4981018;28;20060;-83
2022/08/06 01:37:25;;;;;;;6.15;3.00;;;10.80;99.90;;;;;;4995971;28;20150;-83
2022/08/06 01:39:58;;;;;;;6.53;2.72;;;10.80;99.90;;;;;;4997485;28;20045;-83
2022/08/06 01:42:26;;;;;;;6.00;3.13;;;10.80;99.90;;;;;;5000266;28;20138;-83
2022/08/06 01:44:56;;;;;;;5.03;2.63;;;10.80;99.90;;;;;;4999165;28;20034;-82
2022/08/06 01:47:26;;;;;;;5.85;2.38;;;10.80;99.90;;;;;;5014235;28;20198;-83
2022/08/06 01:49:55;;;;;;;6.25;2.05;;;10.80;99.90;;;;;;4979879;28;20038;-83
2022/08/06 01:52:23;;;;;;;5.63;2.60;;;10.80;99.90;;;;;;5033752;28;20049;-83
2022/08/06 01:54:52;;;;;;;3.45;2.40;;;10.70;99.90;;;;;;5014632;28;20033;-83
2022/08/06 01:57:20;;;;;;;5.10;3.22;;;10.60;99.90;;;;;;4999209;28;20058;-83
2022/08/06 01:59:53;;;;;;;7.97;3.40;;;10.60;99.90;;;;;;4999025;28;20054;-84
2022/08/06 02:02:23;;;;;;;4.38;2.78;;;10.60;99.90;;;;;;5033742;28;20056;-84
2022/08/06 02:04:57;;;;;;;3.65;2.58;;;10.50;99.90;;;;;;5011607;28;20397;-83
2022/08/06 02:07:27;;;;;;;5.53;2.70;;;10.40;99.90;;;;;;4996614;28;20079;-83
2022/08/06 02:09:55;;;;;;;7.57;2.78;;;10.40;99.90;;;;;;5014031;28;20739;-83
2022/08/06 02:12:25;;;;;;;6.20;2.40;;;10.40;99.90;;;;;;4995594;28;20520;-83
2022/08/06 02:14:55;;;;;;;9.15;2.60;;;10.40;99.90;;;;;;5007046;28;20132;-83
2022/08/06 02:17:29;;;;;;;5.38;2.92;;;10.40;99.90;;;;;;4996271;28;20050;-83
2022/08/06 02:20:00;;;;;;;4.80;2.72;;;10.40;99.90;;;;;;4995560;28;20088;-83
2022/08/06 02:22:28;;;;;;;3.33;2.03;;;10.40;99.90;;;;;;5017052;28;20060;-84
2022/08/06 02:25:00;;;;;;;6.28;2.20;;;10.40;99.90;;;;;;5015902;28;20103;-83
2022/08/06 02:27:27;;;;;;;4.90;2.00;;;10.40;99.90;;;;;;5012996;28;20511;-83
2022/08/06 02:29:55;;;;;;;5.65;2.13;;;10.40;99.90;;;;;;4996231;28;20037;-83
2022/08/06 02:32:21;;;;;;;2.58;2.03;;;10.40;99.90;;;;;;4997036;28;20611;-83
2022/08/06 02:34:47;;;;;;;4.80;2.05;;;10.40;99.90;;;;;;5000077;28;20129;-84
2022/08/06 02:37:21;;;;;;;5.93;2.20;;;10.40;99.90;;;;;;4984181;28;20046;-84
2022/08/06 02:39:49;;;;;;;;;;;10.40;99.90;;;;;;4999853;28;20050;-84
2022/08/06 02:42:30;;;;;;;3.45;1.83;;;10.40;99.90;;;;;;5000072;28;19925;-84
2022/08/06 02:45:13;;;;;;;2.45;1.75;;;10.40;99.90;;;;;;5000061;28;20060;-83
2022/08/06 02:47:46;;;;;;;5.72;2.05;;;10.40;99.90;;;;;;5000607;28;20042;-83
2022/08/06 02:50:15;;;;;;;3.43;2.00;;;10.40;99.90;;;;;;5019743;28;20093;-84
2022/08/06 02:52:48;;;;;;;4.68;1.85;;;10.30;99.90;;;;;;5018056;28;20388;-83
2022/08/06 02:55:19;;;;;;;2.42;1.80;;;10.40;99.90;;;;;;4999206;28;20053;-84
2022/08/06 02:57:52;;;;;;;3.08;2.03;;;10.40;99.90;;;;;;4984157;28;20497;-84
2022/08/06 03:00:19;;;;;;;6.78;2.08;;;10.40;99.90;;;;;;5034780;28;20175;-83
2022/08/06 03:02:46;;;;;;;3.58;2.40;;;10.30;99.90;;;;;;5019548;28;20049;-83
2022/08/06 03:05:19;;;;;;;3.80;1.50;;;10.40;99.90;;;;;;5019227;28;20037;-83
2022/08/06 03:07:48;;;;;;;2.78;2.10;;;10.40;99.90;;;;;;5016562;28;20050;-83
2022/08/06 03:10:17;;;;;;;3.50;1.90;;;10.40;99.90;;;;;;4999744;28;20125;-84
2022/08/06 03:12:43;;;;;;;4.88;2.72;;;10.40;99.90;;;;;;4983841;28;20042;-84
2022/08/06 03:15:10;;;;;;;4.93;2.00;;;10.40;99.90;;;;;;4998529;28;20038;-84
2022/08/06 03:17:41;;;;;;;3.92;3.08;;;10.40;99.90;;;;;;5016826;28;20081;-84
2022/08/06 03:20:10;;;;;;;3.38;1.95;;;10.40;99.90;;;;;;5018911;28;20037;-84
2022/08/06 03:22:38;;;;;;;3.42;2.10;;;10.40;99.90;;;;;;5018514;28;20511;-84
2022/08/06 03:25:06;;;;;;;3.75;1.50;;;10.40;99.90;;;;;;4999296;28;20132;-84
2022/08/06 03:27:33;;;;;;;2.40;1.73;;;10.40;99.90;;;;;;4999856;28;20405;-84
2022/08/06 03:30:00;;;;;;;4.43;2.45;;;10.30;99.90;;;;;;5015887;28;20114;-84
2022/08/06 03:32:26;;;;;;;2.80;2.13;;;10.30;99.90;;;;;;5016466;28;20409;-84
2022/08/06 03:34:53;;;;;;;4.15;2.00;;;10.20;99.90;;;;;;5002649;28;20046;-83
2022/08/06 03:37:21;;;;;;;5.28;1.70;;;10.10;99.90;;;;;;4998410;28;20049;-84
2022/08/06 03:39:49;;;;;;;3.53;2.20;;;10.10;99.90;;;;;;4988154;28;20557;-84
2022/08/06 03:42:15;;;;;;;4.13;2.15;;;10.10;99.90;;;;;;5018701;28;20382;-84
2022/08/06 03:44:42;;;;;;;5.32;2.33;;;10.10;99.90;;;;;;5030452;28;20037;-84
2022/08/06 03:47:12;;;;;;;5.22;2.20;;;10.10;99.90;;;;;;4999040;28;20060;-84
2022/08/06 03:49:48;;;;;;;6.10;2.38;;;10.10;99.90;;;;;;4998573;28;20046;-84
2022/08/06 03:52:19;;;;;;;3.05;2.05;;;10.10;99.90;;;;;;5016650;28;20064;-84
2022/08/06 03:54:49;;;;;;;7.15;2.38;;;10.10;99.90;;;;;;4999184;28;20543;-84
2022/08/06 03:57:20;;;;;;;4.30;2.10;;;10.10;99.90;;;;;;4998068;28;20049;-83
2022/08/06 03:59:50;;;;;;;2.55;2.30;;;10.10;99.90;;;;;;5002180;28;20049;-83
2022/08/06 04:02:17;;;;;;;2.28;2.08;;;10.20;99.90;;;;;;5016276;28;20112;-84
2022/08/06 04:04:44;;;;;;;4.50;2.22;;;10.20;99.90;;;;;;4981232;28;20117;-83
2022/08/06 04:07:15;;;;;;;3.53;2.30;;;10.30;99.90;;;;;;4998253;28;20054;-83
2022/08/06 04:09:42;;;;;;;8.02;2.22;;;10.30;99.90;;;;;;5032617;28;20489;-84
2022/08/06 04:12:09;;;;;;;2.30;2.10;;;10.40;99.90;;;;;;5013471;28;20433;-84
2022/08/06 04:14:35;;;;;;;6.22;2.50;;;10.30;99.90;;;;;;5016045;28;20050;-84
2022/08/06 04:17:03;;;;;;;5.47;2.80;;;10.30;99.90;;;;;;5015470;28;20034;-83
2022/08/06 04:19:30;;;;;;;2.97;2.00;;;10.30;99.90;;;;;;4981317;28;20057;-84
2022/08/06 04:21:56;;;;;;;2.78;1.95;;;10.30;99.90;;;;;;5015456;28;20050;-84
2022/08/06 04:24:22;;;;;;;1.98;1.55;;;10.20;99.90;;;;;;5015947;28;20048;-84
2022/08/06 04:26:51;;;;;;;2.55;2.08;;;10.20;99.90;;;;;;5014874;28;20409;-83
2022/08/06 04:29:19;;;;;;;3.45;1.90;;;10.20;99.90;;;;;;5015831;28;20038;-84
2022/08/06 04:31:47;;;;;;;4.15;2.13;;;10.30;99.90;;;;;;5014467;28;20784;-84
2022/08/06 04:34:26;;;;;;;5.10;2.22;;;10.30;99.90;;;;;;4998384;28;20397;-84
2022/08/06 04:36:53;;;;;;;4.40;2.00;;;10.30;99.90;;;;;;4997637;28;20504;-84
2022/08/06 04:39:21;;;;;;;2.53;1.77;;;10.30;99.90;;;;;;5014603;28;20042;-84
2022/08/06 04:41:48;;;;;;;4.00;1.95;;;10.30;99.90;;;;;;4998620;28;20053;-84
2022/08/06 04:44:14;;;;;;;4.93;2.30;;;10.30;99.90;;;;;;5017812;28;20052;-84
2022/08/06 04:46:41;;;;;;;3.58;1.88;;;10.30;99.90;;;;;;5015784;28;20045;-84
2022/08/06 04:49:07;;;;;;;2.85;2.20;;;10.30;99.90;;;;;;4998177;28;20061;-84
2022/08/06 04:51:34;;;;;;;2.67;1.95;;;10.40;99.90;;;;;;5015470;28;20041;-84
2022/08/06 04:54:04;;;;;;;4.10;2.17;;;10.50;99.90;;;;;;5015245;28;20042;-84
2022/08/06 04:56:30;;;;;;;4.45;2.00;;;10.50;99.90;;;;;;5014168;28;20056;-84
2022/08/06 04:58:56;;;;;;;5.18;1.98;;;10.60;99.90;;;;;;4999642;28;20136;-84
2022/08/06 05:01:22;;;;;;;3.55;2.25;;;10.70;99.90;;;;;;5033812;28;20404;-84
2022/08/06 05:03:47;;;;;;;2.83;2.00;;;10.70;99.90;;;;;;5015350;28;20129;-84
2022/08/06 05:06:22;;;;;;;3.25;1.98;;;10.80;99.90;;;;;;5016776;28;20135;-84
2022/08/06 05:08:53;;;;;;;3.00;1.88;;;11.00;99.90;;;;;;5012588;28;20058;-84
2022/08/06 05:11:28;;;;;;;2.97;2.00;;;11.00;99.90;;;;;;5014803;28;20038;-84
2022/08/06 05:14:04;;;;;;;2.15;1.90;;;11.20;99.90;;;;;;5014205;28;20050;-84
2022/08/06 05:16:34;;;;;;;2.47;1.73;;;11.30;99.90;;;;;;5014518;28;20041;-84
2022/08/06 05:19:03;;;;;;;3.58;2.10;;;11.40;99.90;;;;;;4997383;28;20054;-84
2022/08/06 05:21:33;;;;;;;6.18;2.65;;;11.60;99.90;;;;;;4996056;28;20113;-84
2022/08/06 05:24:00;;;;;;;7.32;2.20;;;11.70;99.90;;;;;;5014917;28;20050;-84
2022/08/06 05:26:26;;;;;;;2.75;2.22;;;11.80;99.90;;;;;;4996662;28;20050;-84
2022/08/06 05:28:52;;;;;;;2.85;2.00;;;11.90;99.90;;;;;;4996379;28;20050;-84
2022/08/06 05:31:35;;;;;;;3.35;2.00;;;12.00;99.90;;;;;;4996715;28;20133;-84
2022/08/06 05:34:03;;;;;;;5.22;2.13;;;12.10;99.90;;;;;;4981155;28;20042;-84
2022/08/06 05:36:29;;;;;;;4.47;2.50;;;12.10;99.90;;;;;;5013365;28;20058;-84
2022/08/06 05:38:54;;;;;;;4.30;1.85;;;12.20;99.90;;;;;;5014617;28;20154;-84
2022/08/06 05:41:20;;;;;;;2.65;1.70;;;12.30;99.90;;;;;;5025613;28;20520;-84
2022/08/06 05:43:46;;;;;;;5.60;2.22;;;12.40;99.90;;;;;;5033446;28;20041;-84
2022/08/06 05:46:23;;;;;;;2.95;1.70;;;12.50;99.90;;;;;;5023266;28;20046;-84
2022/08/06 05:49:02;;;;;;;1.60;1.23;;;12.70;99.90;;;;;;5014405;28;20065;-84
2022/08/06 05:51:48;;;;;;;4.25;1.42;;;12.80;99.90;;;;;;5015356;28;20104;-84
2022/08/06 05:54:34;;;;;;;1.80;1.10;;;13.00;99.90;;;;;;5029652;28;20171;-84
2022/08/06 05:57:10;;;;;;;3.50;1.30;;;13.10;99.90;;;;;;4997222;28;20060;-84
2022/08/06 05:59:43;;;;;;;2.42;1.30;;;13.30;99.90;;;;;;5033757;28;20049;-84
2022/08/06 06:02:12;;;;;;;2.90;1.25;;;13.50;99.90;;;;;;4997494;28;20078;-84
2022/08/06 06:04:38;;;;;;;3.22;1.70;;;13.70;99.90;;;;;;4996050;28;20398;-82
2022/08/06 06:07:04;;;;;;;6.30;1.48;;;13.80;99.90;;;;;;5021807;28;20045;-82
2022/08/06 06:09:31;;;;;;;1.73;0.90;;;13.90;99.90;;;;;;4984287;28;20042;-83
2022/08/06 06:11:58;;;;;;;2.30;0.80;;;14.00;99.90;;;;;;4998841;28;20480;-83
2022/08/06 06:14:42;;;;;;;3.97;0.90;;;14.10;99.90;;;;;;5033675;28;20144;-83
2022/08/06 06:17:32;;;;;;;1.30;0.73;;;14.20;99.90;;;;;;4998957;28;20134;-82
2022/08/06 06:20:25;;;;;;;4.47;0.98;;;14.30;99.90;;;;;;5013192;28;20408;-82
2022/08/06 06:23:01;;;;;;;1.42;0.90;;;14.40;99.90;;;;;;4980291;28;20057;-82
2022/08/06 06:25:40;;;;;;;1.77;0.80;;;14.50;99.90;;;;;;4991765;28;20053;-81
2022/08/06 06:28:45;;;;;;;2.50;0.70;;;14.70;99.90;;;;;;4994712;28;20105;-82
2022/08/06 06:31:21;;;;;;;1.93;0.83;;;14.70;99.90;;;;;;4933927;28;20104;-82
2022/08/06 06:34:07;;;;;;;3.72;0.75;;;14.80;99.90;;;;;;4994003;28;20386;-82
2022/08/06 06:36:48;;;;;;;6.18;0.60;;;14.90;99.90;;;;;;4976401;28;20054;-82
2022/08/06 06:39:32;;;;;;;1.60;0.50;;;15.10;99.90;;;;;;4976893;28;20049;-81
2022/08/06 06:42:09;;;;;;;2.95;0.55;;;15.20;99.90;;;;;;4995110;28;20047;-82
2022/08/06 06:44:35;;;;;;;2.50;0.47;;;15.30;99.90;;;;;;4991500;28;20096;-81
2022/08/06 06:47:06;;;;;;;3.13;0.70;;;15.40;99.90;;;;;;4993462;28;20122;-82
2022/08/06 06:49:41;;;;;;;1.27;0.43;;;15.50;99.90;;;;;;4974830;28;20622;-81
2022/08/06 06:52:14;;;;;;;;;;;15.70;99.90;;;;;;4993613;28;20054;-82
2022/08/06 06:54:45;;;;;;;2.60;0.50;;;15.70;99.90;;;;;;4994242;28;19922;-82
2022/08/06 06:57:17;;;;;;;3.55;0.57;;;15.90;99.90;;;;;;5012423;28;20100;-82
2022/08/06 06:59:45;;;;;;;6.28;1.15;;;16.00;99.90;;;;;;4978632;28;20054;-82
2022/08/06 07:02:19;;;;;;;1.55;0.57;;;16.00;99.90;;;;;;4976637;28;20050;-82
2022/08/06 07:04:47;;;;;;;7.80;1.60;;;16.10;99.90;;;;;;4976602;28;20046;-82
2022/08/06 07:07:14;;;;;;;1.70;0.60;;;16.20;99.90;;;;;;4977922;28;20293;-81
2022/08/06 07:09:41;;;;;;;1.83;0.85;;;16.30;99.90;;;;;;4981760;28;20051;-81
2022/08/06 07:12:09;;;;;;;4.63;0.80;;;16.40;99.90;;;;;;4993647;28;20046;-81
2022/08/06 07:14:37;;;;;;;5.90;0.73;;;16.40;99.90;;;;;;4975544;28;20043;-81
2022/08/06 07:17:05;;;;;;;6.60;0.82;;;16.50;99.90;;;;;;4973661;28;20042;-81
2022/08/06 07:19:31;;;;;;;2.92;0.70;;;16.60;99.90;;;;;;4995284;28;20117;-81
2022/08/06 07:21:58;;;;;;;2.90;0.70;;;16.70;99.90;;;;;;4997695;28;20512;-81
2022/08/06 07:24:27;;;;;;;3.92;0.90;;;16.70;99.90;;;;;;4997352;28;20050;-81
2022/08/06 07:26:55;;;;;;;5.30;0.90;;;16.80;99.90;;;;;;4978493;28;20085;-81
2022/08/06 07:29:21;;;;;;;2.75;0.90;;;16.80;99.90;;;;;;4998750;28;20045;-81
2022/08/06 07:31:49;;;;;;;3.60;1.42;;;16.90;99.90;;;;;;4986745;28;20462;-81
2022/08/06 07:34:16;;;;;;;3.92;1.33;;;16.90;99.90;;;;;;4997241;28;20077;-81
2022/08/06 07:36:52;;;;;;;3.42;1.10;;;17.00;99.90;;;;;;4962365;28;20496;-81
2022/08/06 07:39:32;;;;;;;3.88;2.08;;;17.10;99.90;;;;;;4984596;28;20088;-81
2022/08/06 07:42:01;;;;;;;1.58;1.23;;;17.20;99.90;;;;;;4978757;28;20054;-81
2022/08/06 07:44:29;;;;;;;8.50;1.70;;;17.30;99.90;;;;;;4983299;28;20038;-81
2022/08/06 07:47:00;;;;;;;6.15;1.30;;;17.30;99.90;;;;;;4978830;28;20050;-81
2022/08/06 07:49:35;;;;;;;4.03;1.27;;;17.40;99.90;;;;;;4962750;28;20050;-81
2022/08/06 07:52:01;;;;;;;8.43;1.70;;;17.40;99.90;;;;;;4963727;28;20073;-82
2022/08/06 07:54:30;;;;;;;4.60;1.40;;;17.40;99.90;;;;;;4996970;28;20053;-81
2022/08/06 07:56:57;;;;;;;6.47;2.25;;;17.30;99.90;;;;;;4996111;28;20580;-82
2022/08/06 07:59:24;;;;;;;4.50;1.52;;;17.10;99.90;;;;;;4979106;28;20062;-82
2022/08/06 08:01:51;;;;;;;3.65;1.40;;;17.00;99.90;;;;;;4979328;28;20405;-81
2022/08/06 08:07:03;;;;;;;;;;;17.00;99.90;;;;;;4979798;28;20109;-81
2022/08/06 08:09:31;;;;;;;3.25;1.25;;;17.00;99.90;;;;;;4996509;28;19945;-82
2022/08/06 08:11:57;;;;;;;4.75;1.50;;;17.20;99.90;;;;;;4996225;28;20393;-82
2022/08/06 08:14:24;;;;;;;9.18;1.58;;;17.40;99.90;;;;;;4979115;28;20046;-81
2022/08/06 08:16:51;;;;;;;3.47;1.70;;;17.50;99.90;;;;;;4978387;28;20100;-81
2022/08/06 08:19:30;;;;;;;5.97;1.75;;;17.60;99.90;;;;;;4979037;28;20566;-81
2022/08/06 08:22:02;;;;;;;4.65;2.35;;;17.70;99.90;;;;;;4996426;28;20050;-81
2022/08/06 08:24:31;;;;;;;6.35;2.67;;;17.80;99.90;;;;;;4995477;28;20050;-81
2022/08/06 08:26:58;;;;;;;5.13;2.08;;;17.80;99.90;;;;;;4963169;28;20116;-82
2022/08/06 08:29:23;;;;;;;3.28;1.58;;;17.90;99.90;;;;;;4978871;28;20111;-81
2022/08/06 08:31:49;;;;;;;4.45;1.40;;;17.90;99.90;;;;;;4977929;28;20038;-81
2022/08/06 08:34:15;;;;;;;5.20;1.38;;;17.90;99.90;;;;;;4978671;28;20046;-81
2022/08/06 08:36:41;;;;;;;5.20;1.65;;;17.80;99.90;;;;;;4995881;28;20038;-81
2022/08/06 08:39:07;;;;;;;4.63;1.60;;;17.80;99.90;;;;;;4977961;28;20050;-81
2022/08/06 08:41:39;;;;;;;4.55;1.90;;;17.70;99.90;;;;;;4978646;28;20060;-81
2022/08/06 08:44:07;;;;;;;3.25;1.60;;;17.60;99.90;;;;;;4996188;28;20517;-81
2022/08/06 08:46:39;;;;;;;6.93;1.95;;;17.60;99.90;;;;;;4961715;28;20470;-81
2022/08/06 08:49:07;;;;;;;2.75;1.25;;;17.50;99.90;;;;;;4978188;28;20492;-81
2022/08/06 08:51:38;;;;;;;4.43;1.20;;;17.60;99.90;;;;;;4995831;28;20046;-81
2022/08/06 08:54:07;;;;;;;3.25;1.42;;;17.80;99.90;;;;;;4994835;28;20486;-82
2022/08/06 08:56:34;;;;;;;3.05;1.27;;;17.90;99.90;;;;;;4995739;28;20054;-81
2022/08/06 08:59:01;;;;;;;2.15;1.15;;;18.00;99.90;;;;;;4994606;28;20054;-80
2022/08/06 09:01:27;;;;;;;4.32;1.55;;;18.10;99.90;;;;;;4995679;28;20046;-81
2022/08/06 09:03:53;;;;;;;2.03;1.30;;;18.20;99.90;;;;;;4978343;28;20046;-81
2022/08/06 09:06:21;;;;;;;5.90;1.40;;;18.30;99.90;;;;;;4994886;28;20050;-81
2022/08/06 09:08:47;;;;;;;4.53;1.30;;;18.30;99.90;;;;;;4995465;28;20103;-81
2022/08/06 09:11:14;;;;;;;2.72;1.20;;;18.30;99.90;;;;;;4995396;28;20433;-81
2022/08/06 09:13:40;;;;;;;6.05;1.30;;;18.40;99.90;;;;;;4977321;28;20406;-81
2022/08/06 09:16:07;;;;;;;3.63;1.25;;;18.60;99.90;;;;;;4995297;28;20410;-81
2022/08/06 09:18:33;;;;;;;1.95;1.25;;;18.70;99.90;;;;;;4977902;28;20057;-82
2022/08/06 09:21:01;;;;;;;1.73;1.05;;;18.80;99.90;;;;;;4994422;28;20047;-82
2022/08/06 09:23:27;;;;;;;4.32;1.50;;;19.00;99.90;;;;;;4978109;28;20062;-81
2022/08/06 09:25:53;;;;;;;3.92;1.20;;;19.10;99.90;;;;;;4995326;28;20375;-80
2022/08/06 09:28:29;;;;;;;2.35;1.33;;;19.20;99.90;;;;;;4993701;28;20046;-82
2022/08/06 09:31:04;;;;;;;2.95;1.15;;;19.10;99.90;;;;;;4995226;28;20076;-82
2022/08/06 09:33:32;;;;;;;3.92;1.50;;;18.90;99.90;;;;;;4992601;28;20050;-81
2022/08/06 09:36:08;;;;;;;3.20;1.20;;;18.70;99.90;;;;;;4977069;28;20511;-82
2022/08/06 09:38:47;;;;;;;2.42;1.10;;;18.50;99.90;;;;;;4996250;28;20046;-81
2022/08/06 09:41:15;;;;;;;2.95;1.08;;;18.30;99.90;;;;;;4996260;28;20046;-80
2022/08/06 09:43:41;;;;;;;3.40;1.02;;;18.20;99.90;;;;;;4995294;28;20073;-80
2022/08/06 09:46:07;;;;;;;3.97;1.20;;;18.10;99.90;;;;;;4995475;28;20046;-81
2022/08/06 09:48:34;;;;;;;2.35;1.40;;;18.00;99.90;;;;;;4994054;28;20145;-81
2022/08/06 09:51:00;;;;;;;5.45;1.40;;;18.00;99.90;;;;;;4978738;28;20489;-81
2022/08/06 09:53:26;;;;;;;4.40;1.25;;;18.00;99.90;;;;;;5014538;28;20042;-81
2022/08/06 09:55:54;;;;;;;2.92;1.25;;;18.00;99.90;;;;;;4997398;28;20046;-81
2022/08/06 09:58:33;;;;;;;3.78;1.30;;;18.00;99.90;;;;;;4977286;28;20574;-81
2022/08/06 10:01:17;;;;;;;4.95;1.65;;;17.90;99.90;;;;;;4996386;28;20046;-80
2022/08/06 10:03:43;;;;;;;4.20;1.30;;;17.90;99.90;;;;;;4977666;28;20049;-80
2022/08/06 10:06:14;;;;;;;2.72;1.20;;;17.80;99.90;;;;;;4994613;28;20031;-81
2022/08/06 10:08:41;;;;;;;7.82;1.30;;;17.90;99.90;;;;;;4994992;28;20046;-80
2022/08/06 10:11:07;;;;;;;3.40;1.38;;;17.90;99.90;;;;;;4992592;28;20054;-80
2022/08/06 10:13:34;;;;;;;2.53;1.23;;;18.00;99.90;;;;;;4976953;28;20137;-81
2022/08/06 10:16:18;;;;;;;2.92;1.27;;;18.20;99.90;;;;;;4992532;28;20050;-80
2022/08/06 10:18:47;;;;;;;5.20;1.42;;;18.40;99.90;;;;;;4992834;28;20053;-81
2022/08/06 10:21:15;;;;;;;4.13;1.38;;;18.40;99.90;;;;;;5013210;28;20511;-81
2022/08/06 10:23:47;;;;;;;4.28;1.20;;;18.60;99.90;;;;;;5013287;28;20046;-81
2022/08/06 10:26:18;;;;;;;10.07;1.80;;;18.70;99.90;;;;;;4994562;28;20371;-81
2022/08/06 10:28:45;;;;;;;1.98;1.30;;;18.80;99.90;;;;;;4976743;28;20116;-80
2022/08/06 10:31:13;;;;;;;6.40;1.27;;;18.80;99.90;;;;;;4990223;28;20058;-80
2022/08/06 10:33:41;;;;;;;6.40;1.27;;;18.90;99.90;;;;;;4994451;28;20041;-81
2022/08/06 10:36:13;;;;;;;3.17;1.60;;;19.00;99.90;;;;;;4990947;28;20093;-80
2022/08/06 10:38:44;;;;;;;4.40;1.50;;;19.00;99.70;;;;;;4975827;28;20101;-81
2022/08/06 10:41:11;;;;;;;2.72;1.95;;;19.10;99.90;;;;;;4978222;28;20158;-81
2022/08/06 10:43:38;;;;;;;1.60;1.30;;;19.10;99.90;;;;;;4993898;28;20556;-81
2022/08/06 10:46:06;;;;;;;3.83;1.63;;;19.10;99.90;;;;;;4976103;28;20039;-81
2022/08/06 10:48:38;;;;;;;2.28;1.48;;;19.00;99.90;;;;;;4993736;28;20108;-80
2022/08/06 10:51:06;;;;;;;3.00;1.77;;;18.90;99.90;;;;;;4976888;28;20125;-81
2022/08/06 10:53:34;;;;;;;3.97;1.52;;;18.80;99.90;;;;;;4962791;28;20401;-82
2022/08/06 10:56:02;;;;;;;2.35;1.60;;;18.80;99.80;;;;;;4980614;28;20443;-80
2022/08/06 10:58:30;;;;;;;1.58;1.40;;;18.70;98.40;;;;;;4979273;28;20064;-80
2022/08/06 11:01:02;;;;;;;3.40;1.70;;;18.70;96.00;;;;;;4980646;28;20050;-81
2022/08/06 11:03:46;;;;;;;2.47;1.48;;;18.70;94.80;;;;;;4981636;28;20053;-81
2022/08/06 11:06:40;;;;;;;7.53;2.30;;;18.60;93.10;;;;;;4963518;28;20046;-81
2022/08/06 11:09:15;;;;;;;2.45;1.65;;;18.60;95.20;;;;;;4932105;28;20050;-81
2022/08/06 11:11:48;;;;;;;;;;;18.60;94.00;;;;;;5005729;28;20042;-81
2022/08/06 11:14:14;;;;;;;2.85;1.77;;;18.70;96.20;;;;;;5016392;28;20395;-81
2022/08/06 11:16:40;;;;;;;3.47;1.60;;;18.70;97.10;;;;;;5009700;28;20097;-81
2022/08/06 11:19:11;;;;;;;4.38;1.83;;;18.90;97.00;;;;;;4979998;28;20038;-80
2022/08/06 11:21:44;;;;;;;3.60;1.88;;;19.00;97.10;;;;;;4979476;28;20090;-81
2022/08/06 11:24:12;;;;;;;4.03;1.88;;;19.10;97.80;;;;;;4979969;28;20050;-80
2022/08/06 11:26:40;;;;;;;2.78;1.92;;;19.10;98.80;;;;;;4996208;28;20038;-81
2022/08/06 11:29:12;;;;;;;3.72;2.00;;;19.10;98.70;;;;;;4963949;28;20079;-81
2022/08/06 11:31:43;;;;;;;4.57;2.05;;;19.10;98.80;;;;;;4997051;28;20053;-81
2022/08/06 11:34:14;;;;;;;5.82;1.98;;;19.10;98.30;;;;;;4978998;28;20125;-81
2022/08/06 11:36:55;;;;;;;3.97;2.10;;;19.10;98.70;;;;;;4963611;28;20400;-81
2022/08/06 11:39:23;;;;;;;5.30;3.03;;;19.00;99.30;;;;;;4997254;28;20062;-80
2022/08/06 11:42:01;;;;;;;3.55;2.08;;;19.00;99.90;;;;;;4978690;28;20042;-81
2022/08/06 11:44:32;;;;;;;4.60;2.15;;;19.10;98.60;;;;;;4963506;28;20047;-80
2022/08/06 11:47:20;;;;;;;3.38;2.15;;;19.20;98.50;;;;;;4996750;28;20092;-81
2022/08/06 11:49:48;;;;;;;2.42;1.85;;;19.30;98.90;;;;;;4996247;28;20082;-81
2022/08/06 11:52:33;;;;;;;3.33;2.10;;;19.30;97.90;;;;;;4979764;28;20074;-81
2022/08/06 11:55:04;;;;;;;3.78;1.73;;;19.40;98.30;;;;;;4962838;28;20057;-80
2022/08/06 11:57:30;;;;;;;2.35;2.00;;;19.40;98.40;;;;;;4980282;28;20093;-80
2022/08/06 11:59:56;;;;;;;3.72;1.70;;;19.40;98.30;;;;;;4963078;28;20050;-79
2022/08/06 12:02:45;;;;;;;3.00;1.45;;;19.40;98.40;;;;;;4986091;28;20046;-80
2022/08/06 12:05:14;;;;;;;2.72;1.70;;;19.50;98.20;;;;;;5015956;28;20120;-80
2022/08/06 12:07:41;;;;;;;3.97;1.88;;;19.50;98.60;;;;;;5006454;28;20038;-80
2022/08/06 12:10:07;;;;;;;2.33;1.50;;;19.50;97.70;;;;;;4996021;28;20050;-80
2022/08/06 12:12:46;;;;;;;6.88;1.52;;;19.60;98.00;;;;;;4979368;28;20162;-80
2022/08/06 12:15:11;;;;;;;3.72;1.23;;;19.70;98.00;;;;;;4979228;28;20045;-80
2022/08/06 12:17:56;;;;;;;3.38;1.27;;;19.80;98.40;;;;;;4995373;28;20437;-79
2022/08/06 12:20:31;;;;;;;1.55;1.27;;;20.00;98.10;;;;;;4962939;28;20046;-81
2022/08/06 12:22:58;;;;;;;1.85;1.27;;;20.10;97.00;;;;;;4963033;28;20096;-80
2022/08/06 12:25:33;;;;;;;2.10;1.50;;;20.10;96.70;;;;;;4996377;28;20138;-80
2022/08/06 12:28:02;;;;;;;2.97;1.40;;;20.20;97.10;;;;;;4980825;28;20053;-80
2022/08/06 12:30:41;;;;;;;3.00;1.50;;;20.20;96.10;;;;;;4995556;28;20038;-79
2022/08/06 12:33:11;;;;;;;2.17;1.33;;;20.10;95.20;;;;;;4997341;28;20126;-80
2022/08/06 12:35:56;;;;;;;1.48;1.23;;;20.10;95.90;;;;;;4996184;28;20073;-80
2022/08/06 12:38:25;;;;;;;4.38;1.52;;;20.20;95.00;;;;;;4996262;28;20081;-80
2022/08/06 12:41:00;;;;;;;1.58;1.17;;;20.30;95.20;;;;;;4996098;28;20109;-80
2022/08/06 12:43:28;;;;;;;1.83;1.10;;;20.40;96.00;;;;;;5008830;28;20046;-80
2022/08/06 12:45:58;;;;;;;1.70;1.30;;;20.50;95.20;;;;;;4997602;28;20050;-80
2022/08/06 12:48:24;;;;;;;3.08;1.52;;;20.60;93.60;;;;;;4985906;28;20064;-80
2022/08/06 12:51:00;;;;;;;3.15;1.23;;;20.60;93.50;;;;;;4978126;28;20561;-79
2022/08/06 12:53:25;;;;;;;1.58;1.48;;;20.50;92.60;;;;;;4986806;28;20054;-80
2022/08/06 12:55:59;;;;;;;2.13;1.60;;;20.40;93.00;;;;;;4995222;28;20052;-80
2022/08/06 12:58:34;;;;;;;1.88;1.42;;;20.20;93.80;;;;;;4977283;28;20141;-81
2022/08/06 13:01:01;;;;;;;2.50;1.60;;;20.10;94.60;;;;;;4977739;28;20486;-82
2022/08/06 13:03:29;;;;;;;3.25;1.30;;;19.90;94.80;;;;;;4978011;28;20129;-82
2022/08/06 13:05:58;;;;;;;3.75;1.80;;;19.70;95.40;;;;;;4994413;28;20046;-81
2022/08/06 13:08:25;;;;;;;1.88;1.40;;;19.60;95.60;;;;;;4978317;28;20042;-81